sensor_id;sensor_type;location;lat;lon;timestamp;temperature;humidity
59146;DHT22;44928;53.074;6.646;2022-11-15T00:00:50;7.90;99.90
59146;DHT22;44928;53.074;6.646;2022-11-15T00:03:17;7.80;99.90
59146;DHT22;44928;53.074;6.646;2022-11-15T00:05:43;7.80;99.90
59146;DHT22;44928;53.074;6.646;2022-11-15T00:08:10;7.80;99.90
59146;DHT22;44928;53.074;6.646;2022-11-15T00:10:36;7.70;99.90
59146;DHT22;44928;53.074;6.646;2022-11-15T00:13:09;7.70;99.90
59146;DHT22;44928;53.074;6.646;2022-11-15T00:15:37;7.70;99.90
59146;DHT22;44928;53.074;6.646;2022-11-15T00:18:04;7.60;99.90
59146;DHT22;44928;53.074;6.646;2022-11-15T00:20:30;7.60;99.90
59146;DHT22;44928;53.074;6.646;2022-11-15T00:22:56;7.60;99.90
59146;DHT22;44928;53.074;6.646;2022-11-15T00:25:22;7.50;99.90
59146;DHT22;44928;53.074;6.646;2022-11-15T00:27:47;7.50;99.90
59146;DHT22;44928;53.074;6.646;2022-11-15T00:30:13;7.50;99.90
59146;DHT22;44928;53.074;6.646;2022-11-15T00:32:39;7.50;99.90
59146;DHT22;44928;53.074;6.646;2022-11-15T00:35:05;7.40;99.90
59146;DHT22;44928;53.074;6.646;2022-11-15T00:37:31;7.40;99.90
59146;DHT22;44928;53.074;6.646;2022-11-15T00:39:56;7.50;99.90
59146;DHT22;44928;53.074;6.646;2022-11-15T00:42:22;7.40;99.90
59146;DHT22;44928;53.074;6.646;2022-11-15T00:44:48;7.40;99.90
59146;DHT22;44928;53.074;6.646;2022-11-15T00:47:14;7.40;99.90
59146;DHT22;44928;53.074;6.646;2022-11-15T00:49:39;7.40;99.90
59146;DHT22;44928;53.074;6.646;2022-11-15T00:52:06;7.40;99.90
59146;DHT22;44928;53.074;6.646;2022-11-15T00:54:32;7.50;99.90
59146;DHT22;44928;53.074;6.646;2022-11-15T00:56:57;7.50;99.90
59146;DHT22;44928;53.074;6.646;2022-11-15T00:59:23;7.50;99.90
59146;DHT22;44928;53.074;6.646;2022-11-15T01:01:49;7.50;99.90
59146;DHT22;44928;53.074;6.646;2022-11-15T01:04:15;7.50;99.90
59146;DHT22;44928;53.074;6.646;2022-11-15T01:06:40;7.50;99.90
59146;DHT22;44928;53.074;6.646;2022-11-15T01:09:06;7.60;99.90
59146;DHT22;44928;53.074;6.646;2022-11-15T01:11:32;7.60;99.90
59146;DHT22;44928;53.074;6.646;2022-11-15T01:13:58;7.60;99.90
59146;DHT22;44928;53.074;6.646;2022-11-15T01:16:23;7.60;99.90
59146;DHT22;44928;53.074;6.646;2022-11-15T01:18:50;7.60;99.90
59146;DHT22;44928;53.074;6.646;2022-11-15T01:21:18;7.60;99.90
59146;DHT22;44928;53.074;6.646;2022-11-15T01:23:44;7.60;99.90
59146;DHT22;44928;53.074;6.646;2022-11-15T01:26:13;7.60;99.90
59146;DHT22;44928;53.074;6.646;2022-11-15T01:28:40;7.60;99.90
59146;DHT22;44928;53.074;6.646;2022-11-15T01:31:11;7.60;99.90
59146;DHT22;44928;53.074;6.646;2022-11-15T01:33:37;7.70;99.90
59146;DHT22;44928;53.074;6.646;2022-11-15T01:36:04;7.70;99.90
59146;DHT22;44928;53.074;6.646;2022-11-15T01:38:30;7.70;99.90
59146;DHT22;44928;53.074;6.646;2022-11-15T01:40:56;7.70;99.90
59146;DHT22;44928;53.074;6.646;2022-11-15T01:43:34;7.70;99.90
59146;DHT22;44928;53.074;6.646;2022-11-15T01:46:24;7.70;99.90
59146;DHT22;44928;53.074;6.646;2022-11-15T01:48:53;7.70;99.90
59146;DHT22;44928;53.074;6.646;2022-11-15T01:51:22;7.70;99.90
59146;DHT22;44928;53.074;6.646;2022-11-15T01:53:54;7.70;99.90
59146;DHT22;44928;53.074;6.646;2022-11-15T01:56:24;7.70;99.90
59146;DHT22;44928;53.074;6.646;2022-11-15T01:58:52;7.70;99.90
59146;DHT22;44928;53.074;6.646;2022-11-15T02:01:21;7.70;99.90
59146;DHT22;44928;53.074;6.646;2022-11-15T02:04:06;7.70;99.90
59146;DHT22;44928;53.074;6.646;2022-11-15T02:06:36;7.70;99.90
59146;DHT22;44928;53.074;6.646;2022-11-15T02:09:02;7.70;99.90
59146;DHT22;44928;53.074;6.646;2022-11-15T02:11:28;7.70;99.90
59146;DHT22;44928;53.074;6.646;2022-11-15T02:13:55;7.70;99.90
59146;DHT22;44928;53.074;6.646;2022-11-15T02:25:00;7.70;99.90
59146;DHT22;44928;53.074;6.646;2022-11-15T02:28:30;7.70;99.90
59146;DHT22;44928;53.074;6.646;2022-11-15T02:39:02;7.70;99.90
59146;DHT22;44928;53.074;6.646;2022-11-15T02:41:40;7.80;99.90
59146;DHT22;44928;53.074;6.646;2022-11-15T02:44:07;7.80;99.90
59146;DHT22;44928;53.074;6.646;2022-11-15T02:46:41;7.80;99.90
59146;DHT22;44928;53.074;6.646;2022-11-15T02:49:31;7.80;99.90
59146;DHT22;44928;53.074;6.646;2022-11-15T02:51:57;7.80;99.90
59146;DHT22;44928;53.074;6.646;2022-11-15T02:54:26;7.80;99.90
59146;DHT22;44928;53.074;6.646;2022-11-15T02:56:54;7.80;99.90
59146;DHT22;44928;53.074;6.646;2022-11-15T02:59:43;7.80;99.90
59146;DHT22;44928;53.074;6.646;2022-11-15T03:08:18;7.80;99.90
59146;DHT22;44928;53.074;6.646;2022-11-15T03:16:39;7.80;99.90
59146;DHT22;44928;53.074;6.646;2022-11-15T03:19:25;7.90;99.90
59146;DHT22;44928;53.074;6.646;2022-11-15T03:21:55;7.90;99.90
59146;DHT22;44928;53.074;6.646;2022-11-15T03:24:23;7.90;99.90
59146;DHT22;44928;53.074;6.646;2022-11-15T03:26:52;7.90;99.90
59146;DHT22;44928;53.074;6.646;2022-11-15T03:29:25;7.90;99.90
59146;DHT22;44928;53.074;6.646;2022-11-15T03:31:58;7.90;99.90
59146;DHT22;44928;53.074;6.646;2022-11-15T03:34:28;7.90;99.90
59146;DHT22;44928;53.074;6.646;2022-11-15T03:36:55;8.00;99.90
59146;DHT22;44928;53.074;6.646;2022-11-15T03:39:21;8.00;99.90
59146;DHT22;44928;53.074;6.646;2022-11-15T03:44:36;8.00;99.90
59146;DHT22;44928;53.074;6.646;2022-11-15T03:47:23;8.00;99.90
59146;DHT22;44928;53.074;6.646;2022-11-15T03:49:53;8.00;99.90
59146;DHT22;44928;53.074;6.646;2022-11-15T03:52:21;8.00;99.90
59146;DHT22;44928;53.074;6.646;2022-11-15T03:54:57;8.00;99.90
59146;DHT22;44928;53.074;6.646;2022-11-15T03:57:24;8.00;99.90
59146;DHT22;44928;53.074;6.646;2022-11-15T03:59:50;8.10;99.90
59146;DHT22;44928;53.074;6.646;2022-11-15T04:02:16;8.10;99.90
59146;DHT22;44928;53.074;6.646;2022-11-15T04:04:41;8.10;99.90
59146;DHT22;44928;53.074;6.646;2022-11-15T04:07:07;8.10;99.90
59146;DHT22;44928;53.074;6.646;2022-11-15T04:09:33;8.10;99.90
59146;DHT22;44928;53.074;6.646;2022-11-15T04:12:19;8.10;99.90
59146;DHT22;44928;53.074;6.646;2022-11-15T04:15:09;8.20;99.90
59146;DHT22;44928;53.074;6.646;2022-11-15T04:20:27;8.10;99.90
59146;DHT22;44928;53.074;6.646;2022-11-15T04:23:13;8.20;99.90
59146;DHT22;44928;53.074;6.646;2022-11-15T04:26:03;8.20;99.90
59146;DHT22;44928;53.074;6.646;2022-11-15T04:28:30;8.20;99.90
59146;DHT22;44928;53.074;6.646;2022-11-15T04:30:56;8.20;99.90
59146;DHT22;44928;53.074;6.646;2022-11-15T04:33:22;8.20;99.90
59146;DHT22;44928;53.074;6.646;2022-11-15T04:35:48;8.20;99.90
59146;DHT22;44928;53.074;6.646;2022-11-15T04:38:34;8.20;99.90
59146;DHT22;44928;53.074;6.646;2022-11-15T04:41:01;8.20;99.90
59146;DHT22;44928;53.074;6.646;2022-11-15T04:43:27;8.20;99.90
59146;DHT22;44928;53.074;6.646;2022-11-15T04:45:53;8.20;99.90
59146;DHT22;44928;53.074;6.646;2022-11-15T04:48:19;8.30;99.90
59146;DHT22;44928;53.074;6.646;2022-11-15T04:50:44;8.30;99.90
59146;DHT22;44928;53.074;6.646;2022-11-15T04:53:12;8.30;99.90
59146;DHT22;44928;53.074;6.646;2022-11-15T04:55:38;8.30;99.90
59146;DHT22;44928;53.074;6.646;2022-11-15T04:58:04;8.30;99.90
59146;DHT22;44928;53.074;6.646;2022-11-15T05:00:30;8.40;99.90
59146;DHT22;44928;53.074;6.646;2022-11-15T05:02:56;8.40;99.90
59146;DHT22;44928;53.074;6.646;2022-11-15T05:05:41;8.40;99.90
59146;DHT22;44928;53.074;6.646;2022-11-15T05:08:07;8.40;99.90
59146;DHT22;44928;53.074;6.646;2022-11-15T05:10:32;8.40;99.90
59146;DHT22;44928;53.074;6.646;2022-11-15T05:12:58;8.50;99.90
59146;DHT22;44928;53.074;6.646;2022-11-15T05:15:24;8.50;99.90
59146;DHT22;44928;53.074;6.646;2022-11-15T05:17:50;8.50;99.90
59146;DHT22;44928;53.074;6.646;2022-11-15T05:20:16;8.50;99.90
59146;DHT22;44928;53.074;6.646;2022-11-15T05:22:41;8.50;99.90
59146;DHT22;44928;53.074;6.646;2022-11-15T05:25:08;8.60;99.90
59146;DHT22;44928;53.074;6.646;2022-11-15T05:27:34;8.60;99.90
59146;DHT22;44928;53.074;6.646;2022-11-15T05:30:00;8.70;99.90
59146;DHT22;44928;53.074;6.646;2022-11-15T05:32:26;8.70;99.90
59146;DHT22;44928;53.074;6.646;2022-11-15T05:34:54;8.70;99.90
59146;DHT22;44928;53.074;6.646;2022-11-15T05:37:20;8.80;99.90
59146;DHT22;44928;53.074;6.646;2022-11-15T05:39:46;8.80;99.90
59146;DHT22;44928;53.074;6.646;2022-11-15T05:42:14;8.80;99.90
59146;DHT22;44928;53.074;6.646;2022-11-15T05:44:44;8.80;99.90
59146;DHT22;44928;53.074;6.646;2022-11-15T05:47:15;8.90;99.90
59146;DHT22;44928;53.074;6.646;2022-11-15T05:49:43;8.90;99.90
59146;DHT22;44928;53.074;6.646;2022-11-15T05:52:12;8.90;99.90
59146;DHT22;44928;53.074;6.646;2022-11-15T05:54:39;9.00;99.90
59146;DHT22;44928;53.074;6.646;2022-11-15T05:57:05;9.00;99.90
59146;DHT22;44928;53.074;6.646;2022-11-15T05:59:32;9.00;99.90
59146;DHT22;44928;53.074;6.646;2022-11-15T06:01:58;9.10;99.90
59146;DHT22;44928;53.074;6.646;2022-11-15T06:04:23;9.10;99.90
59146;DHT22;44928;53.074;6.646;2022-11-15T06:06:49;9.10;99.90
59146;DHT22;44928;53.074;6.646;2022-11-15T06:09:15;9.10;99.90
59146;DHT22;44928;53.074;6.646;2022-11-15T06:11:41;9.20;99.90
59146;DHT22;44928;53.074;6.646;2022-11-15T06:14:06;9.20;99.90
59146;DHT22;44928;53.074;6.646;2022-11-15T06:16:32;9.30;99.90
59146;DHT22;44928;53.074;6.646;2022-11-15T06:18:58;9.30;99.90
59146;DHT22;44928;53.074;6.646;2022-11-15T06:21:24;9.30;99.90
59146;DHT22;44928;53.074;6.646;2022-11-15T06:23:49;9.40;99.90
59146;DHT22;44928;53.074;6.646;2022-11-15T06:26:15;9.50;99.90
59146;DHT22;44928;53.074;6.646;2022-11-15T06:28:41;9.50;99.90
59146;DHT22;44928;53.074;6.646;2022-11-15T06:31:09;9.50;99.90
59146;DHT22;44928;53.074;6.646;2022-11-15T06:33:37;9.50;99.90
59146;DHT22;44928;53.074;6.646;2022-11-15T06:36:07;9.50;99.90
59146;DHT22;44928;53.074;6.646;2022-11-15T06:38:33;9.60;99.90
59146;DHT22;44928;53.074;6.646;2022-11-15T06:41:05;9.60;99.90
59146;DHT22;44928;53.074;6.646;2022-11-15T06:43:31;9.70;99.90
59146;DHT22;44928;53.074;6.646;2022-11-15T06:45:58;9.70;99.90
59146;DHT22;44928;53.074;6.646;2022-11-15T06:48:25;9.70;99.90
59146;DHT22;44928;53.074;6.646;2022-11-15T06:50:52;9.70;99.90
59146;DHT22;44928;53.074;6.646;2022-11-15T06:53:18;9.80;99.90
59146;DHT22;44928;53.074;6.646;2022-11-15T06:55:44;9.80;99.90
59146;DHT22;44928;53.074;6.646;2022-11-15T06:58:09;9.80;99.90
59146;DHT22;44928;53.074;6.646;2022-11-15T07:00:35;9.80;99.90
59146;DHT22;44928;53.074;6.646;2022-11-15T07:03:01;9.90;99.90
59146;DHT22;44928;53.074;6.646;2022-11-15T07:05:27;9.90;99.90
59146;DHT22;44928;53.074;6.646;2022-11-15T07:07:55;9.90;99.90
59146;DHT22;44928;53.074;6.646;2022-11-15T07:10:21;9.90;99.90
59146;DHT22;44928;53.074;6.646;2022-11-15T07:12:50;9.90;99.90
59146;DHT22;44928;53.074;6.646;2022-11-15T07:15:17;9.90;99.90
59146;DHT22;44928;53.074;6.646;2022-11-15T07:17:43;9.90;99.90
59146;DHT22;44928;53.074;6.646;2022-11-15T07:20:09;10.00;99.90
59146;DHT22;44928;53.074;6.646;2022-11-15T07:22:35;10.00;99.90
59146;DHT22;44928;53.074;6.646;2022-11-15T07:25:01;10.00;99.90
59146;DHT22;44928;53.074;6.646;2022-11-15T07:27:27;10.10;99.90
59146;DHT22;44928;53.074;6.646;2022-11-15T07:29:52;10.10;99.90
59146;DHT22;44928;53.074;6.646;2022-11-15T07:32:18;10.10;99.90
59146;DHT22;44928;53.074;6.646;2022-11-15T07:34:44;10.10;99.90
59146;DHT22;44928;53.074;6.646;2022-11-15T07:37:11;10.20;99.90
59146;DHT22;44928;53.074;6.646;2022-11-15T07:39:37;10.20;99.90
59146;DHT22;44928;53.074;6.646;2022-11-15T07:42:03;10.20;99.90
59146;DHT22;44928;53.074;6.646;2022-11-15T07:44:48;10.20;99.90
59146;DHT22;44928;53.074;6.646;2022-11-15T07:47:13;10.20;99.90
59146;DHT22;44928;53.074;6.646;2022-11-15T07:49:39;10.30;99.90
59146;DHT22;44928;53.074;6.646;2022-11-15T07:52:05;10.30;99.90
59146;DHT22;44928;53.074;6.646;2022-11-15T07:54:31;10.30;99.90
59146;DHT22;44928;53.074;6.646;2022-11-15T07:56:56;10.30;99.90
59146;DHT22;44928;53.074;6.646;2022-11-15T07:59:22;10.30;99.90
59146;DHT22;44928;53.074;6.646;2022-11-15T08:01:48;10.30;99.90
59146;DHT22;44928;53.074;6.646;2022-11-15T08:04:14;10.40;99.90
59146;DHT22;44928;53.074;6.646;2022-11-15T08:06:39;10.40;99.90
59146;DHT22;44928;53.074;6.646;2022-11-15T08:09:05;10.40;99.90
59146;DHT22;44928;53.074;6.646;2022-11-15T08:11:31;10.40;99.90
59146;DHT22;44928;53.074;6.646;2022-11-15T08:13:57;10.40;99.90
59146;DHT22;44928;53.074;6.646;2022-11-15T08:16:22;10.50;99.90
59146;DHT22;44928;53.074;6.646;2022-11-15T08:18:48;10.50;99.90
59146;DHT22;44928;53.074;6.646;2022-11-15T08:21:20;10.50;99.90
59146;DHT22;44928;53.074;6.646;2022-11-15T08:23:46;10.60;99.90
59146;DHT22;44928;53.074;6.646;2022-11-15T08:26:11;10.60;99.90
59146;DHT22;44928;53.074;6.646;2022-11-15T08:28:37;10.60;99.90
59146;DHT22;44928;53.074;6.646;2022-11-15T08:31:03;10.60;99.90
59146;DHT22;44928;53.074;6.646;2022-11-15T08:33:30;10.70;99.90
59146;DHT22;44928;53.074;6.646;2022-11-15T08:36:00;10.70;99.90
59146;DHT22;44928;53.074;6.646;2022-11-15T08:38:26;10.70;99.90
59146;DHT22;44928;53.074;6.646;2022-11-15T08:41:01;10.70;99.90
59146;DHT22;44928;53.074;6.646;2022-11-15T08:43:28;10.70;99.90
59146;DHT22;44928;53.074;6.646;2022-11-15T08:45:56;10.80;99.90
59146;DHT22;44928;53.074;6.646;2022-11-15T08:48:22;10.80;99.90
59146;DHT22;44928;53.074;6.646;2022-11-15T08:50:47;10.90;99.90
59146;DHT22;44928;53.074;6.646;2022-11-15T08:53:13;10.90;99.90
59146;DHT22;44928;53.074;6.646;2022-11-15T08:55:40;10.90;99.90
59146;DHT22;44928;53.074;6.646;2022-11-15T08:58:06;11.00;99.90
59146;DHT22;44928;53.074;6.646;2022-11-15T09:00:33;11.00;99.90
59146;DHT22;44928;53.074;6.646;2022-11-15T09:02:59;11.10;99.90
59146;DHT22;44928;53.074;6.646;2022-11-15T09:05:25;11.10;99.90
59146;DHT22;44928;53.074;6.646;2022-11-15T09:07:54;11.10;99.90
59146;DHT22;44928;53.074;6.646;2022-11-15T09:10:21;11.10;99.90
59146;DHT22;44928;53.074;6.646;2022-11-15T09:12:47;11.10;99.90
59146;DHT22;44928;53.074;6.646;2022-11-15T09:15:16;11.20;99.90
59146;DHT22;44928;53.074;6.646;2022-11-15T09:17:42;11.20;99.90
59146;DHT22;44928;53.074;6.646;2022-11-15T09:20:08;11.20;99.90
59146;DHT22;44928;53.074;6.646;2022-11-15T09:22:34;11.20;99.90
59146;DHT22;44928;53.074;6.646;2022-11-15T09:25:02;11.30;99.90
59146;DHT22;44928;53.074;6.646;2022-11-15T09:27:31;11.30;99.90
59146;DHT22;44928;53.074;6.646;2022-11-15T09:29:57;11.30;99.90
59146;DHT22;44928;53.074;6.646;2022-11-15T09:32:23;11.30;99.90
59146;DHT22;44928;53.074;6.646;2022-11-15T09:34:50;11.40;99.90
59146;DHT22;44928;53.074;6.646;2022-11-15T09:37:16;11.40;99.90
59146;DHT22;44928;53.074;6.646;2022-11-15T09:39:41;11.40;99.90
59146;DHT22;44928;53.074;6.646;2022-11-15T09:42:39;11.40;99.90
59146;DHT22;44928;53.074;6.646;2022-11-15T09:45:28;11.50;99.90
59146;DHT22;44928;53.074;6.646;2022-11-15T09:48:16;11.50;99.90
59146;DHT22;44928;53.074;6.646;2022-11-15T09:50:51;11.50;99.90
59146;DHT22;44928;53.074;6.646;2022-11-15T09:56:03;11.60;99.90
59146;DHT22;44928;53.074;6.646;2022-11-15T10:04:29;11.60;99.90
59146;DHT22;44928;53.074;6.646;2022-11-15T10:07:12;11.60;99.90
59146;DHT22;44928;53.074;6.646;2022-11-15T10:10:20;11.60;99.90
59146;DHT22;44928;53.074;6.646;2022-11-15T10:12:48;11.60;99.90
59146;DHT22;44928;53.074;6.646;2022-11-15T10:15:17;11.60;99.90
59146;DHT22;44928;53.074;6.646;2022-11-15T10:18:04;11.60;99.90
59146;DHT22;44928;53.074;6.646;2022-11-15T10:20:55;11.60;99.90
59146;DHT22;44928;53.074;6.646;2022-11-15T10:23:22;11.60;99.90
59146;DHT22;44928;53.074;6.646;2022-11-15T10:25:55;11.60;99.90
59146;DHT22;44928;53.074;6.646;2022-11-15T10:28:29;11.60;99.90
59146;DHT22;44928;53.074;6.646;2022-11-15T10:30:56;11.60;99.90
59146;DHT22;44928;53.074;6.646;2022-11-15T10:33:36;11.70;99.90
59146;DHT22;44928;53.074;6.646;2022-11-15T10:38:51;11.60;99.90
59146;DHT22;44928;53.074;6.646;2022-11-15T10:46:38;11.60;99.90
59146;DHT22;44928;53.074;6.646;2022-11-15T10:49:23;11.70;99.90
59146;DHT22;44928;53.074;6.646;2022-11-15T10:51:58;11.60;99.90
59146;DHT22;44928;53.074;6.646;2022-11-15T10:54:41;11.60;99.90
59146;DHT22;44928;53.074;6.646;2022-11-15T10:57:20;11.60;99.90
59146;DHT22;44928;53.074;6.646;2022-11-15T10:59:49;11.70;99.90
59146;DHT22;44928;53.074;6.646;2022-11-15T11:02:30;11.70;99.90
59146;DHT22;44928;53.074;6.646;2022-11-15T11:04:57;11.70;99.90
59146;DHT22;44928;53.074;6.646;2022-11-15T11:07:26;11.70;99.90
59146;DHT22;44928;53.074;6.646;2022-11-15T11:12:39;11.80;99.90
59146;DHT22;44928;53.074;6.646;2022-11-15T11:15:11;11.80;99.90
59146;DHT22;44928;53.074;6.646;2022-11-15T11:20:41;11.80;99.90
59146;DHT22;44928;53.074;6.646;2022-11-15T11:23:45;11.80;99.90
59146;DHT22;44928;53.074;6.646;2022-11-15T11:26:44;11.80;99.90
59146;DHT22;44928;53.074;6.646;2022-11-15T11:32:36;11.90;99.90
59146;DHT22;44928;53.074;6.646;2022-11-15T11:40:34;12.10;99.90
59146;DHT22;44928;53.074;6.646;2022-11-15T11:49:08;12.20;99.90
59146;DHT22;44928;53.074;6.646;2022-11-15T11:51:45;12.20;99.90
59146;DHT22;44928;53.074;6.646;2022-11-15T11:56:41;12.30;99.90
59146;DHT22;44928;53.074;6.646;2022-11-15T11:59:36;12.20;99.90
59146;DHT22;44928;53.074;6.646;2022-11-15T12:02:25;12.20;99.90
59146;DHT22;44928;53.074;6.646;2022-11-15T12:05:39;12.30;99.90
59146;DHT22;44928;53.074;6.646;2022-11-15T12:07:47;12.30;99.90
59146;DHT22;44928;53.074;6.646;2022-11-15T12:10:28;12.20;99.90
59146;DHT22;44928;53.074;6.646;2022-11-15T12:13:09;12.30;99.90
59146;DHT22;44928;53.074;6.646;2022-11-15T12:15:47;12.20;99.90
59146;DHT22;44928;53.074;6.646;2022-11-15T12:18:16;12.20;99.90
59146;DHT22;44928;53.074;6.646;2022-11-15T12:23:19;12.20;99.90
59146;DHT22;44928;53.074;6.646;2022-11-15T12:26:00;12.20;99.90
59146;DHT22;44928;53.074;6.646;2022-11-15T12:31:13;12.20;99.90
59146;DHT22;44928;53.074;6.646;2022-11-15T12:33:47;12.20;99.90
59146;DHT22;44928;53.074;6.646;2022-11-15T12:39:02;12.20;99.90
59146;DHT22;44928;53.074;6.646;2022-11-15T12:41:34;12.10;99.90
59146;DHT22;44928;53.074;6.646;2022-11-15T12:44:00;12.10;99.90
59146;DHT22;44928;53.074;6.646;2022-11-15T12:49:00;12.10;99.90
59146;DHT22;44928;53.074;6.646;2022-11-15T12:59:48;12.20;99.90
59146;DHT22;44928;53.074;6.646;2022-11-15T13:04:43;12.20;99.90
59146;DHT22;44928;53.074;6.646;2022-11-15T13:10:28;12.40;99.90
59146;DHT22;44928;53.074;6.646;2022-11-15T13:17:51;12.40;99.90
59146;DHT22;44928;53.074;6.646;2022-11-15T13:22:51;12.50;99.90
59146;DHT22;44928;53.074;6.646;2022-11-15T13:30:48;12.50;99.90
59146;DHT22;44928;53.074;6.646;2022-11-15T13:33:20;12.60;99.90
59146;DHT22;44928;53.074;6.646;2022-11-15T13:35:50;12.60;99.90
59146;DHT22;44928;53.074;6.646;2022-11-15T13:39:23;12.60;99.90
59146;DHT22;44928;53.074;6.646;2022-11-15T13:41:20;12.60;99.90
59146;DHT22;44928;53.074;6.646;2022-11-15T13:43:47;12.70;99.90
59146;DHT22;44928;53.074;6.646;2022-11-15T13:46:20;12.70;99.90
59146;DHT22;44928;53.074;6.646;2022-11-15T13:48:50;12.70;99.90
59146;DHT22;44928;53.074;6.646;2022-11-15T13:51:27;12.60;99.90
59146;DHT22;44928;53.074;6.646;2022-11-15T13:53:57;12.60;99.90
59146;DHT22;44928;53.074;6.646;2022-11-15T13:56:25;12.60;99.90
59146;DHT22;44928;53.074;6.646;2022-11-15T13:58:52;12.60;99.90
59146;DHT22;44928;53.074;6.646;2022-11-15T14:01:21;12.60;99.90
59146;DHT22;44928;53.074;6.646;2022-11-15T14:03:58;12.50;99.90
59146;DHT22;44928;53.074;6.646;2022-11-15T14:06:27;12.50;99.90
59146;DHT22;44928;53.074;6.646;2022-11-15T14:11:28;12.50;99.90
59146;DHT22;44928;53.074;6.646;2022-11-15T14:16:40;12.50;99.90
59146;DHT22;44928;53.074;6.646;2022-11-15T14:19:32;12.50;99.90
59146;DHT22;44928;53.074;6.646;2022-11-15T14:24:36;12.40;99.90
59146;DHT22;44928;53.074;6.646;2022-11-15T14:27:18;12.40;99.90
59146;DHT22;44928;53.074;6.646;2022-11-15T14:29:44;12.40;99.90
59146;DHT22;44928;53.074;6.646;2022-11-15T14:32:20;12.30;99.90
59146;DHT22;44928;53.074;6.646;2022-11-15T14:34:47;12.30;99.90
59146;DHT22;44928;53.074;6.646;2022-11-15T14:37:31;12.20;99.90
59146;DHT22;44928;53.074;6.646;2022-11-15T14:40:00;12.20;99.90
59146;DHT22;44928;53.074;6.646;2022-11-15T14:42:27;12.10;99.90
59146;DHT22;44928;53.074;6.646;2022-11-15T14:44:53;12.10;99.90
59146;DHT22;44928;53.074;6.646;2022-11-15T14:47:19;12.00;99.90
59146;DHT22;44928;53.074;6.646;2022-11-15T14:49:45;12.00;99.90
59146;DHT22;44928;53.074;6.646;2022-11-15T14:54:50;11.90;99.90
59146;DHT22;44928;53.074;6.646;2022-11-15T14:57:16;11.90;99.90
59146;DHT22;44928;53.074;6.646;2022-11-15T14:59:42;11.80;99.90
59146;DHT22;44928;53.074;6.646;2022-11-15T15:02:20;11.80;99.90
59146;DHT22;44928;53.074;6.646;2022-11-15T15:04:46;11.70;99.90
59146;DHT22;44928;53.074;6.646;2022-11-15T15:07:12;11.70;99.90
59146;DHT22;44928;53.074;6.646;2022-11-15T15:09:38;11.60;99.90
59146;DHT22;44928;53.074;6.646;2022-11-15T15:12:05;11.50;99.90
59146;DHT22;44928;53.074;6.646;2022-11-15T15:14:32;11.50;99.90
59146;DHT22;44928;53.074;6.646;2022-11-15T15:16:58;11.40;99.90
59146;DHT22;44928;53.074;6.646;2022-11-15T15:19:24;11.40;99.90
59146;DHT22;44928;53.074;6.646;2022-11-15T15:21:49;11.30;99.90
59146;DHT22;44928;53.074;6.646;2022-11-15T15:24:15;11.30;99.90
59146;DHT22;44928;53.074;6.646;2022-11-15T15:26:41;11.20;99.90
59146;DHT22;44928;53.074;6.646;2022-11-15T15:29:09;11.10;99.90
59146;DHT22;44928;53.074;6.646;2022-11-15T15:31:35;11.10;99.90
59146;DHT22;44928;53.074;6.646;2022-11-15T15:34:01;11.00;99.90
59146;DHT22;44928;53.074;6.646;2022-11-15T15:36:27;11.00;99.90
59146;DHT22;44928;53.074;6.646;2022-11-15T15:38:52;11.00;99.90
59146;DHT22;44928;53.074;6.646;2022-11-15T15:41:18;10.90;99.90
59146;DHT22;44928;53.074;6.646;2022-11-15T15:43:44;10.90;99.90
59146;DHT22;44928;53.074;6.646;2022-11-15T15:46:12;10.90;99.90
59146;DHT22;44928;53.074;6.646;2022-11-15T15:48:39;10.90;99.90
59146;DHT22;44928;53.074;6.646;2022-11-15T15:51:05;10.80;99.90
59146;DHT22;44928;53.074;6.646;2022-11-15T15:53:31;10.80;99.90
59146;DHT22;44928;53.074;6.646;2022-11-15T15:55:57;10.70;99.90
59146;DHT22;44928;53.074;6.646;2022-11-15T15:58:23;10.70;99.90
59146;DHT22;44928;53.074;6.646;2022-11-15T16:00:49;10.70;99.90
59146;DHT22;44928;53.074;6.646;2022-11-15T16:03:15;10.70;99.90
59146;DHT22;44928;53.074;6.646;2022-11-15T16:05:40;10.70;99.90
59146;DHT22;44928;53.074;6.646;2022-11-15T16:08:18;10.60;99.90
59146;DHT22;44928;53.074;6.646;2022-11-15T16:10:45;10.60;99.90
59146;DHT22;44928;53.074;6.646;2022-11-15T16:13:10;10.60;99.90
59146;DHT22;44928;53.074;6.646;2022-11-15T16:15:36;10.60;99.90
59146;DHT22;44928;53.074;6.646;2022-11-15T16:18:04;10.60;99.90
59146;DHT22;44928;53.074;6.646;2022-11-15T16:20:47;10.60;99.90
59146;DHT22;44928;53.074;6.646;2022-11-15T16:23:18;10.60;99.90
59146;DHT22;44928;53.074;6.646;2022-11-15T16:28:25;10.60;99.90
59146;DHT22;44928;53.074;6.646;2022-11-15T16:31:02;10.60;99.90
59146;DHT22;44928;53.074;6.646;2022-11-15T16:33:28;10.60;99.90
59146;DHT22;44928;53.074;6.646;2022-11-15T16:35:53;10.60;99.90
59146;DHT22;44928;53.074;6.646;2022-11-15T16:38:19;10.60;99.90
59146;DHT22;44928;53.074;6.646;2022-11-15T16:40:45;10.60;99.90
59146;DHT22;44928;53.074;6.646;2022-11-15T16:43:11;10.60;99.90
59146;DHT22;44928;53.074;6.646;2022-11-15T16:45:37;10.60;99.90
59146;DHT22;44928;53.074;6.646;2022-11-15T16:48:03;10.60;99.90
59146;DHT22;44928;53.074;6.646;2022-11-15T16:50:31;10.60;99.90
59146;DHT22;44928;53.074;6.646;2022-11-15T16:53:00;10.60;99.90
59146;DHT22;44928;53.074;6.646;2022-11-15T16:55:28;10.60;99.90
59146;DHT22;44928;53.074;6.646;2022-11-15T16:57:55;10.60;99.90
59146;DHT22;44928;53.074;6.646;2022-11-15T17:00:22;10.60;99.90
59146;DHT22;44928;53.074;6.646;2022-11-15T17:02:49;10.60;99.90
59146;DHT22;44928;53.074;6.646;2022-11-15T17:05:17;10.60;99.90
59146;DHT22;44928;53.074;6.646;2022-11-15T17:07:46;10.70;99.90
59146;DHT22;44928;53.074;6.646;2022-11-15T17:10:13;10.70;99.90
59146;DHT22;44928;53.074;6.646;2022-11-15T17:12:39;10.70;99.90
59146;DHT22;44928;53.074;6.646;2022-11-15T17:15:06;10.70;99.90
59146;DHT22;44928;53.074;6.646;2022-11-15T17:17:32;10.70;99.90
59146;DHT22;44928;53.074;6.646;2022-11-15T17:19:58;10.70;99.90
59146;DHT22;44928;53.074;6.646;2022-11-15T17:22:24;10.70;99.90
59146;DHT22;44928;53.074;6.646;2022-11-15T17:24:50;10.70;99.90
59146;DHT22;44928;53.074;6.646;2022-11-15T17:27:15;10.70;99.90
59146;DHT22;44928;53.074;6.646;2022-11-15T17:29:41;10.70;99.90
59146;DHT22;44928;53.074;6.646;2022-11-15T17:32:08;10.70;99.90
59146;DHT22;44928;53.074;6.646;2022-11-15T17:34:33;10.70;99.90
59146;DHT22;44928;53.074;6.646;2022-11-15T17:36:59;10.70;99.90
59146;DHT22;44928;53.074;6.646;2022-11-15T17:39:25;10.80;99.90
59146;DHT22;44928;53.074;6.646;2022-11-15T17:41:51;10.70;99.90
59146;DHT22;44928;53.074;6.646;2022-11-15T17:44:17;10.80;99.90
59146;DHT22;44928;53.074;6.646;2022-11-15T17:46:43;10.80;99.90
59146;DHT22;44928;53.074;6.646;2022-11-15T17:49:09;10.80;99.90
59146;DHT22;44928;53.074;6.646;2022-11-15T17:51:35;10.80;99.90
59146;DHT22;44928;53.074;6.646;2022-11-15T17:54:00;10.80;99.90
59146;DHT22;44928;53.074;6.646;2022-11-15T17:56:28;10.70;99.90